createdAt,value
2023-02-02T00:00:42.608Z,2.48
2023-02-02T00:01:47.960Z,2.46
2023-02-02T00:02:50.940Z,2.45
2023-02-02T00:03:55.360Z,2.44
2023-02-02T00:04:58.463Z,2.44
2023-02-02T00:06:03.289Z,2.45
2023-02-02T00:07:06.854Z,2.46
2023-02-02T00:08:10.017Z,2.48
2023-02-02T00:09:14.864Z,2.48
2023-02-02T00:10:18.304Z,2.47
2023-02-02T00:11:21.419Z,2.46
2023-02-02T00:12:24.345Z,2.47
2023-02-02T00:13:27.382Z,2.46
2023-02-02T00:14:30.321Z,2.47
2023-02-02T00:15:33.254Z,2.47
2023-02-02T00:16:44.762Z,2.45
2023-02-02T00:17:47.664Z,2.45
2023-02-02T00:18:50.578Z,2.44
2023-02-02T00:19:53.680Z,2.41
2023-02-02T00:20:56.713Z,2.41
2023-02-02T00:21:59.647Z,2.40
2023-02-02T00:23:03.668Z,2.39
2023-02-02T00:24:08.226Z,2.38
2023-02-02T00:25:11.286Z,2.39
2023-02-02T00:26:14.826Z,2.40
2023-02-02T00:27:18.072Z,2.42
2023-02-02T00:28:21.194Z,2.44
2023-02-02T00:29:29.940Z,2.44
2023-02-02T00:30:32.917Z,2.42
2023-02-02T00:31:36.116Z,2.40
2023-02-02T00:32:40.187Z,2.38
2023-02-02T00:33:47.334Z,2.35
2023-02-02T00:34:50.481Z,2.33
2023-02-02T00:35:53.651Z,2.31
2023-02-02T00:36:56.792Z,2.29
2023-02-02T00:37:59.837Z,2.28
2023-02-02T00:39:03.158Z,2.25
2023-02-02T00:40:07.055Z,2.23
2023-02-02T00:41:10.101Z,2.20
2023-02-02T00:42:13.044Z,2.18
2023-02-02T00:43:16.072Z,2.17
2023-02-02T00:44:37.575Z,2.15
2023-02-02T00:45:40.889Z,2.14
2023-02-02T00:46:43.873Z,2.09
2023-02-02T00:47:48.988Z,2.07
2023-02-02T00:48:51.844Z,2.04
2023-02-02T00:49:54.973Z,2.03
2023-02-02T00:50:58.328Z,2.02
2023-02-02T00:52:01.358Z,2.01
2023-02-02T00:53:04.400Z,1.99
2023-02-02T00:54:07.451Z,1.98
2023-02-02T00:55:11.920Z,1.97
2023-02-02T00:56:15.073Z,1.97
2023-02-02T00:57:18.015Z,1.96
2023-02-02T00:58:21.061Z,1.95
2023-02-02T00:59:24.098Z,1.94
2023-02-02T01:00:27.805Z,1.93
2023-02-02T01:01:30.982Z,1.92
2023-02-02T01:02:35.264Z,1.92
2023-02-02T01:03:38.559Z,1.91
2023-02-02T01:04:41.604Z,1.93
2023-02-02T01:05:44.759Z,1.94
2023-02-02T01:06:47.891Z,1.95
2023-02-02T01:07:51.033Z,1.94
2023-02-02T01:08:54.085Z,1.91
2023-02-02T01:09:57.124Z,1.89
2023-02-02T01:11:00.276Z,1.87
2023-02-02T01:12:03.352Z,1.84
2023-02-02T01:13:07.591Z,1.81
2023-02-02T01:14:10.675Z,1.76
2023-02-02T01:15:13.763Z,1.72
2023-02-02T01:16:17.242Z,1.68
2023-02-02T01:17:20.180Z,1.67
2023-02-02T01:18:24.133Z,1.67
2023-02-02T01:19:27.219Z,1.66
2023-02-02T01:20:31.283Z,1.66
2023-02-02T01:21:34.435Z,1.65
2023-02-02T01:22:38.071Z,1.65
2023-02-02T01:23:41.255Z,1.66
2023-02-02T01:24:44.320Z,1.68
2023-02-02T01:25:50.801Z,1.70
2023-02-02T01:26:53.913Z,1.68
2023-02-02T01:27:56.955Z,1.67
2023-02-02T01:28:59.898Z,1.65
2023-02-02T01:30:03.468Z,1.65
2023-02-02T01:31:15.805Z,1.62
2023-02-02T01:32:18.864Z,1.60
2023-02-02T01:33:22.601Z,1.58
2023-02-02T01:34:25.760Z,1.56
2023-02-02T01:35:29.530Z,1.54
2023-02-02T01:36:33.001Z,1.50
2023-02-02T01:37:36.238Z,1.45
2023-02-02T01:38:39.715Z,1.43
2023-02-02T01:39:42.759Z,1.41
2023-02-02T01:40:53.763Z,1.36
2023-02-02T01:41:56.837Z,1.33
2023-02-02T01:42:59.916Z,1.29
2023-02-02T01:44:05.958Z,1.26
2023-02-02T01:45:18.129Z,1.25
2023-02-02T01:46:27.206Z,1.23
2023-02-02T01:47:39.295Z,1.20
2023-02-02T01:48:45.816Z,1.16
2023-02-02T01:49:48.850Z,1.13
2023-02-02T01:50:56.177Z,1.11
2023-02-02T01:52:00.553Z,1.07
2023-02-02T01:53:05.909Z,1.05
2023-02-02T01:54:12.550Z,1.02
2023-02-02T01:55:18.708Z,1.02
2023-02-02T01:56:28.379Z,1.02
2023-02-02T01:57:40.937Z,1.01
2023-02-02T01:58:44.903Z,1.00
2023-02-02T01:59:49.532Z,0.99
2023-02-02T02:00:53.437Z,0.98
2023-02-02T02:01:56.857Z,0.95
2023-02-02T02:03:06.129Z,0.94
2023-02-02T02:04:09.311Z,0.93
2023-02-02T02:05:16.294Z,0.94
2023-02-02T02:06:20.363Z,0.94
2023-02-02T02:07:23.605Z,0.97
2023-02-02T02:08:51.440Z,1.01
2023-02-02T02:09:54.706Z,1.03
2023-02-02T02:10:58.554Z,1.06
2023-02-02T02:12:01.695Z,1.08
2023-02-02T02:13:06.032Z,1.10
2023-02-02T02:14:29.452Z,1.13
2023-02-02T02:15:54.455Z,1.15
2023-02-02T02:17:19.271Z,1.16
2023-02-02T02:18:50.831Z,1.16
2023-02-02T02:20:32.290Z,1.14
2023-02-02T02:22:00.982Z,1.14
2023-02-02T02:23:46.802Z,1.14
2023-02-02T02:25:14.727Z,1.15
2023-02-02T02:26:36.105Z,1.15
2023-02-02T02:28:00.944Z,1.17
2023-02-02T02:29:10.604Z,1.17
2023-02-02T02:30:19.908Z,1.19
2023-02-02T02:31:50.341Z,1.20
2023-02-02T02:34:14.072Z,1.35
2023-02-02T02:35:24.190Z,1.25
2023-02-02T02:36:36.921Z,1.29
2023-02-02T02:37:49.510Z,1.32
2023-02-02T02:39:06.233Z,1.34
2023-02-02T02:40:27.856Z,1.36
2023-02-02T02:41:32.515Z,1.39
2023-02-02T02:42:42.129Z,1.39
2023-02-02T02:45:02.464Z,1.50
2023-02-02T02:46:07.455Z,1.38
2023-02-02T02:47:10.894Z,1.39
2023-02-02T02:48:14.122Z,1.38
2023-02-02T02:49:17.356Z,1.40
2023-02-02T02:50:21.734Z,1.42
2023-02-02T02:51:53.319Z,1.45
2023-02-02T02:53:01.805Z,1.48
2023-02-02T02:54:05.120Z,1.54
2023-02-02T02:55:10.582Z,1.56
2023-02-02T02:56:29.488Z,1.59
2023-02-02T02:57:55.403Z,1.61
2023-02-02T02:59:10.850Z,1.64
2023-02-02T03:00:23.370Z,1.67
2023-02-02T03:01:37.638Z,1.68
2023-02-02T03:03:11.257Z,1.70
2023-02-02T03:04:23.596Z,1.72
2023-02-02T03:05:45.290Z,1.72
2023-02-02T03:06:54.756Z,1.73
2023-02-02T03:08:04.420Z,1.75
2023-02-02T03:09:16.934Z,1.74
2023-02-02T03:10:23.556Z,1.73
2023-02-02T03:11:26.736Z,1.73
2023-02-02T03:12:29.877Z,1.72
2023-02-02T03:13:33.607Z,1.71
2023-02-02T03:14:37.346Z,1.70
2023-02-02T03:15:41.912Z,1.68
2023-02-02T03:16:44.940Z,1.69
2023-02-02T03:17:49.460Z,1.70
2023-02-02T03:18:52.485Z,1.72
2023-02-02T03:19:55.422Z,1.73
2023-02-02T03:20:58.861Z,1.74
2023-02-02T03:22:02.139Z,1.75
2023-02-02T03:23:05.054Z,1.75
2023-02-02T03:24:08.056Z,1.74
2023-02-02T03:25:10.976Z,1.74
2023-02-02T03:26:14.546Z,1.73
2023-02-02T03:27:17.484Z,1.72
2023-02-02T03:28:22.659Z,1.73
2023-02-02T03:29:25.634Z,1.75
2023-02-02T03:30:28.701Z,1.76
2023-02-02T03:31:31.725Z,1.80
2023-02-02T03:32:34.803Z,1.81
2023-02-02T03:33:38.386Z,1.81
2023-02-02T03:34:41.316Z,1.81
2023-02-02T03:35:44.264Z,1.80
2023-02-02T03:36:47.411Z,1.79
2023-02-02T03:37:50.472Z,1.78
2023-02-02T03:38:53.391Z,1.76
2023-02-02T03:39:56.335Z,1.75
2023-02-02T03:40:59.490Z,1.76
2023-02-02T03:42:02.535Z,1.74
2023-02-02T03:43:05.675Z,1.75
2023-02-02T03:44:08.736Z,1.74
2023-02-02T03:45:11.864Z,1.73
2023-02-02T03:46:15.224Z,1.73
2023-02-02T03:47:18.203Z,1.72
2023-02-02T03:48:21.170Z,1.71
2023-02-02T03:49:24.114Z,1.71
2023-02-02T03:50:27.290Z,1.72
2023-02-02T03:51:30.352Z,1.71
2023-02-02T03:52:33.286Z,1.72
2023-02-02T03:53:36.258Z,1.74
2023-02-02T03:54:39.316Z,1.75
2023-02-02T03:55:42.367Z,1.78
2023-02-02T03:56:45.432Z,1.80
2023-02-02T03:57:48.471Z,1.81
2023-02-02T03:58:51.400Z,1.83
2023-02-02T03:59:54.364Z,1.83
2023-02-02T04:01:05.464Z,1.84
2023-02-02T04:02:08.494Z,1.82
2023-02-02T04:03:11.716Z,1.82
2023-02-02T04:04:15.103Z,1.83
2023-02-02T04:05:18.174Z,1.85
2023-02-02T04:06:21.626Z,1.86
2023-02-02T04:07:24.605Z,1.89
2023-02-02T04:08:27.929Z,1.91
2023-02-02T04:09:30.888Z,1.93
2023-02-02T04:10:33.873Z,1.94
2023-02-02T04:11:37.490Z,1.94
2023-02-02T04:12:41.526Z,1.95
2023-02-02T04:13:44.575Z,1.96
2023-02-02T04:14:47.516Z,1.97
2023-02-02T04:16:00.613Z,1.98
2023-02-02T04:17:03.682Z,1.97
2023-02-02T04:18:06.592Z,1.96
2023-02-02T04:19:09.622Z,1.94
2023-02-02T04:20:12.906Z,1.95
2023-02-02T04:21:15.921Z,1.92
2023-02-02T04:22:18.871Z,1.90
2023-02-02T04:23:21.950Z,1.89
2023-02-02T04:24:24.891Z,1.89
2023-02-02T04:25:27.946Z,1.87
2023-02-02T04:26:30.901Z,1.84
2023-02-02T04:27:34.095Z,1.82
2023-02-02T04:28:37.123Z,1.79
2023-02-02T04:29:40.048Z,1.76
2023-02-02T04:30:43.235Z,1.73
2023-02-02T04:31:46.290Z,1.71
2023-02-02T04:32:50.899Z,1.67
2023-02-02T04:33:53.968Z,1.66
2023-02-02T04:34:56.904Z,1.65
2023-02-02T04:35:59.850Z,1.66
2023-02-02T04:37:02.995Z,1.66
2023-02-02T04:38:05.920Z,1.67
2023-02-02T04:39:11.047Z,1.66
2023-02-02T04:40:14.548Z,1.65
2023-02-02T04:41:20.626Z,1.64
2023-02-02T04:42:23.603Z,1.63
2023-02-02T04:43:26.645Z,1.62
2023-02-02T04:44:29.682Z,1.63
2023-02-02T04:45:32.805Z,1.62
2023-02-02T04:46:35.772Z,1.61
2023-02-02T04:47:38.704Z,1.59
2023-02-02T04:48:41.674Z,1.57
2023-02-02T04:49:44.627Z,1.58
2023-02-02T04:50:47.659Z,1.60
2023-02-02T04:51:50.701Z,1.61
2023-02-02T04:52:53.577Z,1.61
2023-02-02T04:53:56.497Z,1.61
2023-02-02T04:54:59.603Z,1.64
2023-02-02T04:56:07.801Z,1.65
2023-02-02T04:57:10.765Z,1.65
2023-02-02T04:58:13.698Z,1.65
2023-02-02T04:59:16.611Z,1.67
2023-02-02T05:00:19.933Z,1.68
2023-02-02T05:01:23.263Z,1.70
2023-02-02T05:02:26.320Z,1.72
2023-02-02T05:03:29.222Z,1.75
2023-02-02T05:04:32.274Z,1.76
2023-02-02T05:05:35.478Z,1.79
2023-02-02T05:06:38.675Z,1.81
2023-02-02T05:07:41.619Z,1.83
2023-02-02T05:08:45.266Z,1.85
2023-02-02T05:09:48.255Z,1.85
2023-02-02T05:10:51.437Z,1.85
2023-02-02T05:11:54.519Z,1.85
2023-02-02T05:12:57.457Z,1.87
2023-02-02T05:14:00.523Z,1.90
2023-02-02T05:15:05.053Z,1.91
2023-02-02T05:16:08.319Z,1.93
2023-02-02T05:17:11.255Z,1.94
2023-02-02T05:18:14.381Z,1.96
2023-02-02T05:19:17.440Z,1.97
2023-02-02T05:20:20.514Z,1.97
2023-02-02T05:21:23.882Z,1.99
2023-02-02T05:22:27.043Z,1.99
2023-02-02T05:23:30.510Z,1.99
2023-02-02T05:24:33.868Z,1.99
2023-02-02T05:25:36.932Z,2.00
2023-02-02T05:26:40.021Z,2.01
2023-02-02T05:27:44.139Z,2.02
2023-02-02T05:28:47.899Z,2.04
2023-02-02T05:29:50.992Z,2.05
2023-02-02T05:30:53.974Z,2.08
2023-02-02T05:31:57.713Z,2.10
2023-02-02T05:33:00.678Z,2.14
2023-02-02T05:34:04.464Z,2.17
2023-02-02T05:35:08.768Z,2.18
2023-02-02T05:36:12.148Z,2.20
2023-02-02T05:37:15.298Z,2.19
2023-02-02T05:38:18.353Z,2.20
2023-02-02T05:39:21.413Z,2.21
2023-02-02T05:40:25.183Z,2.21
2023-02-02T05:41:28.122Z,2.20
2023-02-02T05:42:31.166Z,2.21
2023-02-02T05:43:34.330Z,2.20
2023-02-02T05:44:37.291Z,2.20
2023-02-02T05:45:40.316Z,2.22
2023-02-02T05:46:44.715Z,2.24
2023-02-02T05:47:47.944Z,2.26
2023-02-02T05:48:51.009Z,2.25
2023-02-02T05:49:54.233Z,2.26
2023-02-02T05:51:03.695Z,2.26
2023-02-02T05:52:07.147Z,2.27
2023-02-02T05:53:12.793Z,2.27
2023-02-02T05:54:17.667Z,2.26
2023-02-02T05:55:20.727Z,2.27
2023-02-02T05:56:23.794Z,2.26
2023-02-02T05:57:27.508Z,2.26
2023-02-02T05:58:30.445Z,2.25
2023-02-02T05:59:33.374Z,2.24
2023-02-02T06:00:36.578Z,2.23
2023-02-02T06:01:39.527Z,2.25
2023-02-02T06:02:42.531Z,2.26
2023-02-02T06:03:45.737Z,2.29
2023-02-02T06:04:48.786Z,2.30
2023-02-02T06:05:52.253Z,2.31
2023-02-02T06:06:55.350Z,2.31
2023-02-02T06:07:58.316Z,2.32
2023-02-02T06:09:02.116Z,2.32
2023-02-02T06:10:06.110Z,2.32
2023-02-02T06:11:13.750Z,2.33
2023-02-02T06:12:18.413Z,2.34
2023-02-02T06:13:21.999Z,2.36
2023-02-02T06:14:24.948Z,2.38
2023-02-02T06:15:28.989Z,2.38
2023-02-02T06:16:32.015Z,2.41
2023-02-02T06:17:34.946Z,2.42
2023-02-02T06:18:38.183Z,2.43
2023-02-02T06:19:41.132Z,2.43
2023-02-02T06:20:46.159Z,2.41
2023-02-02T06:21:49.271Z,2.39
2023-02-02T06:22:52.230Z,2.37
2023-02-02T06:23:55.162Z,2.37
2023-02-02T06:24:58.293Z,2.37
2023-02-02T06:26:02.943Z,2.38
2023-02-02T06:27:05.917Z,2.39
2023-02-02T06:28:08.969Z,2.44
2023-02-02T06:29:13.028Z,2.48
2023-02-02T06:30:16.531Z,2.50
2023-02-02T06:31:20.610Z,2.53
2023-02-02T06:32:23.675Z,2.55
2023-02-02T06:33:26.623Z,2.55
2023-02-02T06:34:29.564Z,2.57
2023-02-02T06:35:32.908Z,2.57
2023-02-02T06:36:36.275Z,2.58
2023-02-02T06:37:39.354Z,2.59
2023-02-02T06:38:42.410Z,2.61
2023-02-02T06:39:45.445Z,2.62
2023-02-02T06:40:48.400Z,2.63
2023-02-02T06:41:51.544Z,2.65
2023-02-02T06:43:02.257Z,2.66
2023-02-02T06:44:05.236Z,2.69
2023-02-02T06:45:09.049Z,2.72
2023-02-02T06:46:12.740Z,2.74
2023-02-02T06:47:15.689Z,2.74
2023-02-02T06:48:18.869Z,2.74
2023-02-02T06:49:21.975Z,2.74
2023-02-02T06:50:24.935Z,2.75
2023-02-02T06:51:27.864Z,2.75
2023-02-02T06:52:30.924Z,2.75
2023-02-02T06:53:34.673Z,2.76
2023-02-02T06:54:37.656Z,2.76
2023-02-02T06:55:40.596Z,2.75
2023-02-02T06:56:43.858Z,2.75
2023-02-02T06:57:47.027Z,2.78
2023-02-02T06:58:50.108Z,2.79
2023-02-02T06:59:53.117Z,2.81
2023-02-02T07:01:05.206Z,2.82
2023-02-02T07:02:12.615Z,2.82
2023-02-02T07:03:16.199Z,2.81
2023-02-02T07:04:19.472Z,2.81
2023-02-02T07:05:25.951Z,2.81
2023-02-02T07:06:29.916Z,2.84
2023-02-02T07:07:34.105Z,2.83
2023-02-02T07:08:37.084Z,2.84
2023-02-02T07:09:40.047Z,2.85
2023-02-02T07:11:13.855Z,2.88
2023-02-02T07:11:48.973Z,2.90
2023-02-02T07:12:53.932Z,2.91
2023-02-02T07:13:57.006Z,2.93
2023-02-02T07:15:00.064Z,2.93
2023-02-02T07:16:05.590Z,2.94
2023-02-02T07:17:08.693Z,2.96
2023-02-02T07:18:11.927Z,2.98
2023-02-02T07:19:15.050Z,2.99
2023-02-02T07:20:18.668Z,3.00
2023-02-02T07:21:23.546Z,3.01
2023-02-02T07:22:26.512Z,3.01
2023-02-02T07:23:29.923Z,3.01
2023-02-02T07:24:32.935Z,3.00
2023-02-02T07:25:35.857Z,3.00
2023-02-02T07:26:39.055Z,2.99
2023-02-02T07:27:42.083Z,2.98
2023-02-02T07:28:45.630Z,2.92
2023-02-02T07:29:48.599Z,2.89
2023-02-02T07:30:51.853Z,2.89
2023-02-02T07:31:55.060Z,2.87
2023-02-02T07:32:58.559Z,2.86
2023-02-02T07:34:01.649Z,2.86
2023-02-02T07:35:05.443Z,2.86
2023-02-02T07:36:09.081Z,2.88
2023-02-02T07:37:12.142Z,2.89
2023-02-02T07:38:15.289Z,2.89
2023-02-02T11:07:26.019Z,2.91
2023-02-02T11:08:38.659Z,2.90
2023-02-02T11:09:42.331Z,2.99
2023-02-02T11:10:47.062Z,3.04
2023-02-02T11:11:53.684Z,3.11
2023-02-02T11:13:02.047Z,3.17
2023-02-02T11:14:11.267Z,3.23
2023-02-02T11:16:43.981Z,3.47
2023-02-02T11:17:46.225Z,3.41
2023-02-02T11:18:49.424Z,3.47
2023-02-02T11:19:54.949Z,3.51
2023-02-02T11:20:57.842Z,3.55
2023-02-02T11:22:02.834Z,3.60
2023-02-02T11:23:07.182Z,3.64
2023-02-02T11:24:28.772Z,3.68
2023-02-02T11:25:34.556Z,3.72
2023-02-02T11:26:54.758Z,3.75
2023-02-02T11:27:57.879Z,3.76
2023-02-02T11:29:01.362Z,3.77
2023-02-02T11:30:28.965Z,3.80
2023-02-02T11:31:36.885Z,3.82
2023-02-02T11:32:39.865Z,3.86
2023-02-02T11:33:42.812Z,3.88
2023-02-02T11:34:46.197Z,3.89
2023-02-02T11:35:55.926Z,3.88
2023-02-02T11:37:21.574Z,3.87
2023-02-02T11:38:24.843Z,3.89
2023-02-02T11:39:28.275Z,3.89
2023-02-02T11:40:43.348Z,3.91
2023-02-02T11:41:46.760Z,3.91
2023-02-02T11:42:51.314Z,3.93
2023-02-02T11:43:56.056Z,3.95
2023-02-02T11:44:59.557Z,3.98
2023-02-02T11:46:05.762Z,4.01
2023-02-02T11:47:12.323Z,4.04
2023-02-02T11:48:21.485Z,4.08
2023-02-02T11:49:26.172Z,4.10
2023-02-02T11:50:29.256Z,4.10
2023-02-02T11:51:32.500Z,4.13
2023-02-02T11:52:36.757Z,4.15
2023-02-02T11:53:46.299Z,4.18
2023-02-02T11:54:51.828Z,4.21
2023-02-02T11:55:57.481Z,4.23
2023-02-02T11:57:03.701Z,4.27
2023-02-02T11:58:28.036Z,4.28
2023-02-02T11:59:34.666Z,4.30
2023-02-02T12:00:52.195Z,4.33
2023-02-02T12:02:25.885Z,4.34
2023-02-02T12:03:35.002Z,4.37
2023-02-02T12:04:38.631Z,4.39
2023-02-02T12:05:43.545Z,4.40
2023-02-02T12:06:46.640Z,4.41
2023-02-02T12:07:49.784Z,4.42
2023-02-02T12:08:58.561Z,4.42
2023-02-02T12:10:20.202Z,4.42
2023-02-02T12:11:36.026Z,4.42
2023-02-02T12:13:03.614Z,4.40
2023-02-02T12:14:25.112Z,4.38
2023-02-02T12:15:43.559Z,4.33
2023-02-02T12:17:16.063Z,4.29
2023-02-02T12:18:40.210Z,4.27
2023-02-02T12:20:20.117Z,4.25
2023-02-02T12:21:45.063Z,4.24
2023-02-02T12:23:00.474Z,4.23
2023-02-02T12:24:31.044Z,4.25
2023-02-02T12:25:57.215Z,4.28
2023-02-02T12:27:15.815Z,4.28
2023-02-02T12:28:39.023Z,4.28
2023-02-02T12:29:57.425Z,4.28
2023-02-02T12:31:28.433Z,4.27
2023-02-02T12:32:41.996Z,4.27
2023-02-02T12:34:12.794Z,4.27
2023-02-02T12:35:25.043Z,4.27
2023-02-02T12:36:43.543Z,4.26
2023-02-02T12:38:12.802Z,4.25
2023-02-02T12:39:29.837Z,4.25
2023-02-02T12:41:01.068Z,4.25
2023-02-02T12:42:30.271Z,4.24
2023-02-02T12:43:49.079Z,4.24
2023-02-02T12:44:58.751Z,4.23
2023-02-02T12:46:23.529Z,4.21
2023-02-02T12:47:55.480Z,4.19
2023-02-02T12:49:18.756Z,4.18
2023-02-02T12:50:57.231Z,4.14
2023-02-02T12:52:24.825Z,4.13
2023-02-02T12:53:47.742Z,4.09
2023-02-02T12:54:59.123Z,4.07
2023-02-02T12:56:18.103Z,4.04
2023-02-02T12:57:47.023Z,4.04
2023-02-02T12:59:05.648Z,4.03
2023-02-02T13:00:28.307Z,4.03
2023-02-02T13:01:51.778Z,4.02
2023-02-02T13:03:19.534Z,4.01
2023-02-02T13:04:37.954Z,3.99
2023-02-02T13:05:47.628Z,3.97
2023-02-02T13:06:56.978Z,3.94
2023-02-02T13:08:21.989Z,3.93
2023-02-02T13:09:59.037Z,3.93
2023-02-02T13:11:05.954Z,3.93
2023-02-02T13:12:11.351Z,3.89
2023-02-02T13:13:24.472Z,3.86
2023-02-02T13:14:31.226Z,3.87
2023-02-02T13:15:36.880Z,3.86
2023-02-02T13:16:45.473Z,3.86
2023-02-02T13:17:57.412Z,3.88
2023-02-02T13:19:06.999Z,3.87
2023-02-02T13:20:33.524Z,3.87
2023-02-02T13:21:38.612Z,3.87
2023-02-02T13:22:44.634Z,3.88
2023-02-02T13:23:53.621Z,3.86
2023-02-02T13:25:01.215Z,3.86
2023-02-02T13:26:12.323Z,3.86
2023-02-02T13:27:19.106Z,3.86
2023-02-02T13:30:04.162Z,3.98
2023-02-02T13:31:16.813Z,3.87
2023-02-02T13:32:26.456Z,3.86
2023-02-02T13:33:32.882Z,3.86
2023-02-02T13:34:45.399Z,3.85
2023-02-02T13:35:54.814Z,3.84
2023-02-02T13:37:04.252Z,3.85
2023-02-02T13:38:19.741Z,3.87
2023-02-02T13:39:26.165Z,3.87
2023-02-02T13:40:43.167Z,3.87
2023-02-02T13:41:49.120Z,3.88
2023-02-02T13:42:58.851Z,3.89
2023-02-02T13:44:08.263Z,3.87
2023-02-02T13:45:21.011Z,3.89
2023-02-02T13:46:30.342Z,3.88
2023-02-02T13:47:42.959Z,3.88
2023-02-02T13:49:09.606Z,3.88
2023-02-02T13:50:16.422Z,3.88
2023-02-02T13:51:50.296Z,3.87
2023-02-02T13:53:22.771Z,3.88
2023-02-02T13:54:45.831Z,3.86
2023-02-02T13:56:14.980Z,3.83
2023-02-02T13:57:33.441Z,3.84
2023-02-02T13:58:52.078Z,3.83
2023-02-02T14:01:58.440Z,3.81
2023-02-02T14:03:05.455Z,3.80
2023-02-02T14:04:12.099Z,3.77
2023-02-02T14:05:34.783Z,3.77
2023-02-02T14:07:06.384Z,3.79
2023-02-02T14:08:21.459Z,3.79
2023-02-02T14:09:30.439Z,3.78
2023-02-02T14:10:39.469Z,3.80
2023-02-02T14:11:47.631Z,3.80
2023-02-02T14:12:51.795Z,3.80
2023-02-02T14:14:34.503Z,3.81
2023-02-02T14:15:40.612Z,3.82
2023-02-02T14:16:47.250Z,3.81
2023-02-02T14:17:53.478Z,3.79
2023-02-02T14:18:58.432Z,3.80
2023-02-02T14:20:03.707Z,3.80
2023-02-02T14:21:06.881Z,3.81
2023-02-02T14:22:13.446Z,3.81
2023-02-02T14:23:53.868Z,3.81
2023-02-02T14:24:56.994Z,3.81
2023-02-02T14:26:09.462Z,3.80
2023-02-02T14:27:19.141Z,3.81
2023-02-02T14:28:43.836Z,3.80
2023-02-02T14:29:50.795Z,3.81
2023-02-02T14:32:33.873Z,3.89
2023-02-02T14:33:41.736Z,3.76
2023-02-02T14:34:45.115Z,3.75
2023-02-02T14:35:52.261Z,3.76
2023-02-02T14:37:17.156Z,3.77
2023-02-02T14:38:23.769Z,3.77
2023-02-02T14:39:33.472Z,3.76
2023-02-02T14:40:46.258Z,3.75
2023-02-02T14:42:27.705Z,3.76
2023-02-02T14:43:48.117Z,3.76
2023-02-02T14:45:14.232Z,3.75
2023-02-02T14:46:26.746Z,3.74
2023-02-02T14:47:41.898Z,3.72
2023-02-02T14:48:50.908Z,3.73
2023-02-02T14:49:57.009Z,3.73
2023-02-02T14:51:02.139Z,3.73
2023-02-02T14:52:05.266Z,3.73
2023-02-02T14:53:23.440Z,3.74
2023-02-02T14:54:36.319Z,3.74
2023-02-02T14:55:52.127Z,3.73
2023-02-02T14:56:58.610Z,3.74
2023-02-02T14:58:04.478Z,3.73
2023-02-02T14:59:11.510Z,3.70
2023-02-02T15:00:21.861Z,3.70
2023-02-02T15:01:28.062Z,3.70
2023-02-02T15:02:34.713Z,3.69
2023-02-02T15:03:47.623Z,3.69
2023-02-02T15:04:50.601Z,3.69
2023-02-02T15:06:02.860Z,3.68
2023-02-02T15:07:28.501Z,3.70
2023-02-02T15:08:31.607Z,3.70
2023-02-02T15:09:38.307Z,3.72
2023-02-02T15:10:56.825Z,3.73
2023-02-02T15:12:03.607Z,3.74
2023-02-02T15:13:10.213Z,3.73
2023-02-02T15:14:15.712Z,3.74
2023-02-02T15:15:27.406Z,3.74
2023-02-02T15:16:32.903Z,3.74
2023-02-02T15:17:44.446Z,3.73
2023-02-02T15:18:51.000Z,3.74
2023-02-02T15:20:14.130Z,3.74
2023-02-02T15:21:23.364Z,3.74
2023-02-02T15:22:38.806Z,3.75
2023-02-02T15:23:44.474Z,3.76
2023-02-02T15:24:48.029Z,3.77
2023-02-02T15:27:11.755Z,3.89
2023-02-02T15:28:30.059Z,3.79
2023-02-02T15:29:44.692Z,3.81
2023-02-02T15:30:57.396Z,3.81
2023-02-02T15:32:01.108Z,3.81
2023-02-02T15:33:13.481Z,3.80
2023-02-02T15:34:37.079Z,3.81
2023-02-02T15:35:40.868Z,3.80
2023-02-02T15:36:47.792Z,3.80
2023-02-02T15:37:54.338Z,3.81
2023-02-02T15:40:23.980Z,3.95
2023-02-02T15:41:31.767Z,3.86
2023-02-02T15:42:53.425Z,3.87
2023-02-02T15:43:56.388Z,3.90
2023-02-02T15:44:59.510Z,3.91
2023-02-02T15:46:06.189Z,3.92
2023-02-02T15:47:12.900Z,3.91
2023-02-02T15:48:29.746Z,3.91
2023-02-02T15:49:36.174Z,3.91
2023-02-02T15:50:44.766Z,3.91
2023-02-02T15:51:54.245Z,3.91
2023-02-02T15:52:57.207Z,3.90
2023-02-02T15:54:00.167Z,3.90
2023-02-02T15:55:06.786Z,3.91
2023-02-02T15:56:25.858Z,3.91
2023-02-02T15:57:37.955Z,3.92
2023-02-02T15:58:42.745Z,3.93
2023-02-02T15:59:45.821Z,3.92
2023-02-02T16:00:58.472Z,3.92
2023-02-02T16:02:07.962Z,3.91
2023-02-02T16:03:14.576Z,3.91
2023-02-02T16:04:28.387Z,3.90
2023-02-02T16:05:37.890Z,3.89
2023-02-02T16:06:42.408Z,3.90
2023-02-02T16:07:50.659Z,3.90
2023-02-02T16:08:50.333Z,3.91
2023-02-02T16:09:53.368Z,3.91
2023-02-02T16:11:17.823Z,3.92
2023-02-02T16:12:23.131Z,3.93
2023-02-02T16:13:28.393Z,3.92
2023-02-02T16:14:35.553Z,3.91
2023-02-02T16:15:38.532Z,3.92
2023-02-02T16:16:41.992Z,3.92
2023-02-02T16:17:45.167Z,3.93
2023-02-02T16:18:49.910Z,3.94
2023-02-02T16:20:08.656Z,3.95
2023-02-02T16:22:26.410Z,4.10
2023-02-02T16:23:32.931Z,3.99
2023-02-02T16:24:47.663Z,4.00
2023-02-02T16:25:53.924Z,4.01
2023-02-02T16:26:59.969Z,4.00
2023-02-02T16:28:04.113Z,3.99
2023-02-02T16:29:10.819Z,4.00
2023-02-02T16:31:30.025Z,4.10
2023-02-02T16:32:38.278Z,4.00
2023-02-02T16:33:43.301Z,4.01
2023-02-02T16:34:47.130Z,4.01
2023-02-02T16:35:50.162Z,4.02
2023-02-02T16:37:26.759Z,4.03
2023-02-02T16:38:33.376Z,4.05
2023-02-02T16:39:36.484Z,4.04
2023-02-02T16:40:39.897Z,4.05
2023-02-02T16:41:44.983Z,4.04
2023-02-02T16:43:05.954Z,4.05
2023-02-02T16:44:27.469Z,4.06
2023-02-02T16:45:37.315Z,4.08
2023-02-02T16:46:47.285Z,4.05
2023-02-02T19:59:34.914Z,2.25
2023-02-02T20:00:39.984Z,2.21
2023-02-02T20:01:45.008Z,2.28
2023-02-02T20:03:00.076Z,2.33
2023-02-02T20:04:06.405Z,2.36
2023-02-02T20:05:13.106Z,2.41
2023-02-02T20:06:25.567Z,2.46
2023-02-02T20:07:29.459Z,2.48
2023-02-02T20:08:40.775Z,2.52
2023-02-02T20:09:43.724Z,2.56
2023-02-02T20:10:47.417Z,2.59
2023-02-02T20:11:55.343Z,2.62
2023-02-02T20:12:58.414Z,2.65
2023-02-02T20:15:36.156Z,2.82
2023-02-02T20:16:42.004Z,2.72
2023-02-02T20:17:44.955Z,2.78
2023-02-02T20:18:52.405Z,2.81
2023-02-02T20:19:55.687Z,2.84
2023-02-02T20:20:58.870Z,2.89
2023-02-02T20:22:02.520Z,2.94
2023-02-02T20:23:21.260Z,2.98
2023-02-02T20:24:27.520Z,3.04
2023-02-02T20:25:31.753Z,3.08
2023-02-02T20:26:38.723Z,3.12
2023-02-02T20:27:43.767Z,3.15
2023-02-02T20:28:47.874Z,3.20
2023-02-02T20:29:52.667Z,3.22
2023-02-02T20:30:55.813Z,3.25
2023-02-02T20:31:58.794Z,3.26
2023-02-02T20:33:03.194Z,3.28
2023-02-02T20:34:28.303Z,3.29
2023-02-02T20:35:42.961Z,3.31
2023-02-02T20:36:48.072Z,3.32
2023-02-02T20:37:51.557Z,3.33
2023-02-02T20:38:54.754Z,3.35
2023-02-02T20:40:01.028Z,3.35
2023-02-02T20:41:05.280Z,3.36
2023-02-02T20:42:08.414Z,3.36
2023-02-02T20:43:11.476Z,3.34
2023-02-02T20:44:14.436Z,3.35
2023-02-02T20:45:18.384Z,3.36
2023-02-02T20:46:21.925Z,3.37
2023-02-02T20:47:25.109Z,3.38
2023-02-02T20:48:28.640Z,3.36
2023-02-02T20:49:32.051Z,3.36
2023-02-02T20:50:35.741Z,3.35
2023-02-02T20:51:40.171Z,3.34
2023-02-02T20:52:43.579Z,3.33
2023-02-02T20:53:46.509Z,3.31
2023-02-02T20:54:51.003Z,3.31
2023-02-02T20:55:55.992Z,3.31
2023-02-02T20:56:59.417Z,3.30
2023-02-02T20:58:06.086Z,3.29
2023-02-02T20:59:09.062Z,3.30
2023-02-02T21:00:16.611Z,3.29
2023-02-02T21:01:23.087Z,3.27
2023-02-02T21:02:27.505Z,3.25
2023-02-02T21:03:32.369Z,3.25
2023-02-02T21:04:36.400Z,3.24
2023-02-02T21:05:40.268Z,3.24
2023-02-02T21:06:47.185Z,3.23
2023-02-02T21:07:52.963Z,3.23
2023-02-02T21:08:56.790Z,3.23
2023-02-02T21:10:00.650Z,3.24
2023-02-02T21:11:04.830Z,3.26
2023-02-02T21:12:08.287Z,3.25
2023-02-02T21:13:11.798Z,3.26
2023-02-02T21:14:18.027Z,3.25
2023-02-02T21:15:21.763Z,3.24
2023-02-02T21:16:26.253Z,3.24
2023-02-02T21:17:29.898Z,3.23
2023-02-02T21:18:33.755Z,3.23
2023-02-02T21:19:37.447Z,3.21
2023-02-02T21:20:41.038Z,3.19
2023-02-02T21:21:44.247Z,3.16
2023-02-02T21:22:47.812Z,3.13
2023-02-02T21:23:51.610Z,3.11
2023-02-02T21:24:54.874Z,3.10
2023-02-02T21:25:58.075Z,3.09
2023-02-02T21:27:03.102Z,3.07
2023-02-02T21:28:06.371Z,3.06
2023-02-02T21:29:10.213Z,3.04
2023-02-02T21:30:13.820Z,3.01
2023-02-02T21:31:18.080Z,2.99
2023-02-02T21:32:21.226Z,2.99
2023-02-02T21:33:24.277Z,2.99
2023-02-02T21:34:28.210Z,2.99
2023-02-02T21:35:31.908Z,3.00
2023-02-02T21:36:38.474Z,3.02
2023-02-02T21:37:43.495Z,3.04
2023-02-02T21:38:46.694Z,3.06
2023-02-02T21:39:50.800Z,3.08
2023-02-02T21:40:59.158Z,3.09
2023-02-02T21:42:11.435Z,3.11
2023-02-02T21:43:17.562Z,3.11
2023-02-02T21:44:22.066Z,3.12
2023-02-02T21:45:34.070Z,3.11
2023-02-02T21:46:38.588Z,3.11
2023-02-02T21:47:47.939Z,3.10
2023-02-02T21:48:50.936Z,3.11
2023-02-02T21:49:57.225Z,3.12
2023-02-02T21:51:22.400Z,3.13
2023-02-02T21:52:29.172Z,3.16
2023-02-02T21:53:33.409Z,3.19
2023-02-02T21:54:37.380Z,3.20
2023-02-02T21:55:40.646Z,3.21